sensor_id;sensor_type;location;lat;lon;timestamp;temperature;humidity
42905;DHT22;28550;51.228;4.528;2024-03-08T07:21:28;5.20;1.00
42905;DHT22;28550;51.228;4.528;2024-03-08T07:57:55;8.00;99.90
42905;DHT22;28550;51.228;4.528;2024-03-08T08:01:03;8.30;99.90
42905;DHT22;28550;51.228;4.528;2024-03-08T08:03:37;8.40;99.90
42905;DHT22;28550;51.228;4.528;2024-03-08T08:06:25;8.40;99.90
42905;DHT22;28550;51.228;4.528;2024-03-08T08:09:20;8.70;99.90
42905;DHT22;28550;51.228;4.528;2024-03-08T08:12:14;9.00;99.90
42905;DHT22;28550;51.228;4.528;2024-03-08T08:14:45;9.40;1.00
42905;DHT22;28550;51.228;4.528;2024-03-08T08:17:18;9.80;99.90
42905;DHT22;28550;51.228;4.528;2024-03-08T08:19:47;10.10;54.20
42905;DHT22;28550;51.228;4.528;2024-03-08T08:22:13;10.10;1.00
42905;DHT22;28550;51.228;4.528;2024-03-08T08:24:39;9.90;99.90
42905;DHT22;28550;51.228;4.528;2024-03-08T08:27:06;10.40;1.00
42905;DHT22;28550;51.228;4.528;2024-03-08T08:29:32;10.40;23.00
42905;DHT22;28550;51.228;4.528;2024-03-08T08:31:58;10.50;99.90
42905;DHT22;28550;51.228;4.528;2024-03-08T08:34:25;10.80;1.00
42905;DHT22;28550;51.228;4.528;2024-03-08T08:36:53;11.30;99.90
42905;DHT22;28550;51.228;4.528;2024-03-08T08:39:20;11.50;1.00
42905;DHT22;28550;51.228;4.528;2024-03-08T08:41:49;11.60;99.90
42905;DHT22;28550;51.228;4.528;2024-03-08T08:44:16;11.40;1.00
42905;DHT22;28550;51.228;4.528;2024-03-08T08:46:43;11.20;1.00
42905;DHT22;28550;51.228;4.528;2024-03-08T08:49:08;11.20;99.90
42905;DHT22;28550;51.228;4.528;2024-03-08T08:51:52;11.40;1.00
42905;DHT22;28550;51.228;4.528;2024-03-08T08:54:18;11.50;99.90
42905;DHT22;28550;51.228;4.528;2024-03-08T08:56:47;11.70;1.00
42905;DHT22;28550;51.228;4.528;2024-03-08T08:59:13;12.00;99.90
42905;DHT22;28550;51.228;4.528;2024-03-08T09:01:40;12.40;99.90
42905;DHT22;28550;51.228;4.528;2024-03-08T09:04:06;12.60;1.00
42905;DHT22;28550;51.228;4.528;2024-03-08T09:06:33;13.10;1.00
42905;DHT22;28550;51.228;4.528;2024-03-08T09:08:58;12.60;1.00
42905;DHT22;28550;51.228;4.528;2024-03-08T09:11:24;12.80;1.00
42905;DHT22;28550;51.228;4.528;2024-03-08T09:13:53;13.10;1.00
42905;DHT22;28550;51.228;4.528;2024-03-08T09:16:28;13.70;1.00
42905;DHT22;28550;51.228;4.528;2024-03-08T09:18:56;13.50;99.90
42905;DHT22;28550;51.228;4.528;2024-03-08T09:21:22;12.70;1.00
42905;DHT22;28550;51.228;4.528;2024-03-08T09:23:51;12.70;1.00
42905;DHT22;28550;51.228;4.528;2024-03-08T09:26:19;13.40;99.90
42905;DHT22;28550;51.228;4.528;2024-03-08T09:28:47;13.90;99.90
42905;DHT22;28550;51.228;4.528;2024-03-08T09:31:13;14.00;99.90
42905;DHT22;28550;51.228;4.528;2024-03-08T09:33:43;14.50;99.90
42905;DHT22;28550;51.228;4.528;2024-03-08T09:36:12;14.60;99.90
42905;DHT22;28550;51.228;4.528;2024-03-08T09:38:45;14.30;99.90
42905;DHT22;28550;51.228;4.528;2024-03-08T09:41:13;14.00;99.90
42905;DHT22;28550;51.228;4.528;2024-03-08T09:43:41;13.80;99.90
42905;DHT22;28550;51.228;4.528;2024-03-08T09:46:15;13.40;99.90
42905;DHT22;28550;51.228;4.528;2024-03-08T09:48:42;12.80;99.90
42905;DHT22;28550;51.228;4.528;2024-03-08T09:51:08;12.70;1.00
42905;DHT22;28550;51.228;4.528;2024-03-08T09:53:40;12.60;1.00
42905;DHT22;28550;51.228;4.528;2024-03-08T09:56:21;12.00;1.00
42905;DHT22;28550;51.228;4.528;2024-03-08T09:59:17;11.90;1.00
42905;DHT22;28550;51.228;4.528;2024-03-08T10:01:54;11.50;86.80
42905;DHT22;28550;51.228;4.528;2024-03-08T10:04:27;11.80;99.90
42905;DHT22;28550;51.228;4.528;2024-03-08T10:07:14;11.60;42.00
42905;DHT22;28550;51.228;4.528;2024-03-08T10:10:08;11.30;99.90
42905;DHT22;28550;51.228;4.528;2024-03-08T10:12:40;11.10;99.90
42905;DHT22;28550;51.228;4.528;2024-03-08T10:15:18;11.10;99.90
42905;DHT22;28550;51.228;4.528;2024-03-08T10:18:03;11.70;39.00
42905;DHT22;28550;51.228;4.528;2024-03-08T10:21:08;12.40;1.00
42905;DHT22;28550;51.228;4.528;2024-03-08T10:23:47;13.50;1.00
42905;DHT22;28550;51.228;4.528;2024-03-08T10:26:42;14.30;99.90
42905;DHT22;28550;51.228;4.528;2024-03-08T10:29:10;14.70;99.90
42905;DHT22;28550;51.228;4.528;2024-03-08T10:31:43;14.50;99.90
42905;DHT22;28550;51.228;4.528;2024-03-08T10:34:11;14.40;99.90
42905;DHT22;28550;51.228;4.528;2024-03-08T10:36:40;15.20;99.90
42905;DHT22;28550;51.228;4.528;2024-03-08T10:39:26;15.80;99.90
42905;DHT22;28550;51.228;4.528;2024-03-08T10:41:56;16.30;99.90
42905;DHT22;28550;51.228;4.528;2024-03-08T10:44:53;16.10;99.90
42905;DHT22;28550;51.228;4.528;2024-03-08T10:47:30;16.20;99.90
42905;DHT22;28550;51.228;4.528;2024-03-08T10:50:15;16.40;99.90
42905;DHT22;28550;51.228;4.528;2024-03-08T10:52:52;16.50;99.90
42905;DHT22;28550;51.228;4.528;2024-03-08T10:55:19;17.00;99.90
42905;DHT22;28550;51.228;4.528;2024-03-08T10:57:52;16.10;99.90
42905;DHT22;28550;51.228;4.528;2024-03-08T11:00:20;15.40;99.90
42905;DHT22;28550;51.228;4.528;2024-03-08T11:02:54;16.00;99.90
42905;DHT22;28550;51.228;4.528;2024-03-08T11:05:40;16.30;99.90
42905;DHT22;28550;51.228;4.528;2024-03-08T11:08:37;16.70;99.90
42905;DHT22;28550;51.228;4.528;2024-03-08T11:11:30;17.30;99.90
42905;DHT22;28550;51.228;4.528;2024-03-08T11:13:58;17.90;99.90
42905;DHT22;28550;51.228;4.528;2024-03-08T11:19:33;16.10;99.90
42905;DHT22;28550;51.228;4.528;2024-03-08T11:22:32;15.70;99.90
42905;DHT22;28550;51.228;4.528;2024-03-08T11:25:04;16.50;99.90
42905;DHT22;28550;51.228;4.528;2024-03-08T11:27:38;16.30;99.90
42905;DHT22;28550;51.228;4.528;2024-03-08T11:30:38;15.50;99.90
42905;DHT22;28550;51.228;4.528;2024-03-08T11:33:31;14.70;99.90
42905;DHT22;28550;51.228;4.528;2024-03-08T11:36:26;14.10;99.90
42905;DHT22;28550;51.228;4.528;2024-03-08T11:39:04;13.60;99.90
42905;DHT22;28550;51.228;4.528;2024-03-08T11:41:49;14.50;99.90
42905;DHT22;28550;51.228;4.528;2024-03-08T11:44:38;15.10;99.90
42905;DHT22;28550;51.228;4.528;2024-03-08T11:47:15;14.80;99.90
42905;DHT22;28550;51.228;4.528;2024-03-08T11:49:49;14.90;99.90
42905;DHT22;28550;51.228;4.528;2024-03-08T11:52:20;15.50;99.90
42905;DHT22;28550;51.228;4.528;2024-03-08T11:55:00;16.70;99.90
42905;DHT22;28550;51.228;4.528;2024-03-08T11:57:27;17.40;99.90
42905;DHT22;28550;51.228;4.528;2024-03-08T12:00:00;17.70;99.90
42905;DHT22;28550;51.228;4.528;2024-03-08T12:03:06;17.70;99.90
42905;DHT22;28550;51.228;4.528;2024-03-08T12:05:33;18.00;99.90
42905;DHT22;28550;51.228;4.528;2024-03-08T12:08:05;18.30;99.90
42905;DHT22;28550;51.228;4.528;2024-03-08T12:10:59;17.90;99.90
42905;DHT22;28550;51.228;4.528;2024-03-08T12:13:48;17.90;99.90
42905;DHT22;28550;51.228;4.528;2024-03-08T12:16:19;18.20;99.90
42905;DHT22;28550;51.228;4.528;2024-03-08T12:18:48;18.60;99.90
42905;DHT22;28550;51.228;4.528;2024-03-08T12:21:17;18.80;99.90
42905;DHT22;28550;51.228;4.528;2024-03-08T12:23:46;18.90;99.90
42905;DHT22;28550;51.228;4.528;2024-03-08T12:26:18;18.70;99.90
42905;DHT22;28550;51.228;4.528;2024-03-08T12:29:24;19.20;99.90
42905;DHT22;28550;51.228;4.528;2024-03-08T12:31:59;18.10;99.90
42905;DHT22;28550;51.228;4.528;2024-03-08T12:34:31;18.80;99.90
42905;DHT22;28550;51.228;4.528;2024-03-08T12:37:21;19.00;99.90
42905;DHT22;28550;51.228;4.528;2024-03-08T12:40:00;19.10;99.90
42905;DHT22;28550;51.228;4.528;2024-03-08T12:42:46;19.40;99.90
42905;DHT22;28550;51.228;4.528;2024-03-08T12:45:16;18.70;99.90
42905;DHT22;28550;51.228;4.528;2024-03-08T12:48:04;18.10;99.90
42905;DHT22;28550;51.228;4.528;2024-03-08T12:50:41;19.20;99.90
42905;DHT22;28550;51.228;4.528;2024-03-08T12:53:15;19.30;99.90
42905;DHT22;28550;51.228;4.528;2024-03-08T12:55:44;19.20;99.90
42905;DHT22;28550;51.228;4.528;2024-03-08T12:58:09;19.80;99.90
42905;DHT22;28550;51.228;4.528;2024-03-08T13:00:42;19.50;99.90
42905;DHT22;28550;51.228;4.528;2024-03-08T13:03:11;19.80;99.90
42905;DHT22;28550;51.228;4.528;2024-03-08T13:05:46;19.10;99.90
42905;DHT22;28550;51.228;4.528;2024-03-08T13:08:23;18.70;99.90
42905;DHT22;28550;51.228;4.528;2024-03-08T13:10:54;19.30;99.90
42905;DHT22;28550;51.228;4.528;2024-03-08T13:13:22;19.60;99.90
42905;DHT22;28550;51.228;4.528;2024-03-08T13:15:52;20.20;99.90
42905;DHT22;28550;51.228;4.528;2024-03-08T13:18:18;20.80;99.90
42905;DHT22;28550;51.228;4.528;2024-03-08T13:20:46;20.20;99.90
42905;DHT22;28550;51.228;4.528;2024-03-08T13:23:16;19.20;99.90
42905;DHT22;28550;51.228;4.528;2024-03-08T13:25:44;19.30;99.90
42905;DHT22;28550;51.228;4.528;2024-03-08T13:28:13;19.90;99.90
42905;DHT22;28550;51.228;4.528;2024-03-08T13:30:43;20.00;99.90
42905;DHT22;28550;51.228;4.528;2024-03-08T13:33:14;20.10;99.90
42905;DHT22;28550;51.228;4.528;2024-03-08T13:35:42;20.20;99.90
42905;DHT22;28550;51.228;4.528;2024-03-08T13:38:11;20.00;99.90
42905;DHT22;28550;51.228;4.528;2024-03-08T13:40:41;19.60;99.90
42905;DHT22;28550;51.228;4.528;2024-03-08T13:43:20;20.30;99.90
42905;DHT22;28550;51.228;4.528;2024-03-08T13:45:47;20.20;99.90
42905;DHT22;28550;51.228;4.528;2024-03-08T13:48:17;19.60;99.90
42905;DHT22;28550;51.228;4.528;2024-03-08T13:50:44;19.20;99.90
42905;DHT22;28550;51.228;4.528;2024-03-08T13:53:14;19.10;99.90
42905;DHT22;28550;51.228;4.528;2024-03-08T13:55:41;20.10;99.90
42905;DHT22;28550;51.228;4.528;2024-03-08T13:58:08;20.00;99.90
42905;DHT22;28550;51.228;4.528;2024-03-08T14:00:36;20.10;99.90
42905;DHT22;28550;51.228;4.528;2024-03-08T14:03:02;20.00;99.90
42905;DHT22;28550;51.228;4.528;2024-03-08T14:05:31;19.70;99.90
42905;DHT22;28550;51.228;4.528;2024-03-08T14:08:01;19.20;99.90
42905;DHT22;28550;51.228;4.528;2024-03-08T14:10:35;19.60;99.90
42905;DHT22;28550;51.228;4.528;2024-03-08T14:13:05;20.30;99.90
42905;DHT22;28550;51.228;4.528;2024-03-08T14:15:34;20.40;99.90
42905;DHT22;28550;51.228;4.528;2024-03-08T14:18:03;20.80;99.90
42905;DHT22;28550;51.228;4.528;2024-03-08T14:20:32;20.60;99.90
42905;DHT22;28550;51.228;4.528;2024-03-08T14:22:57;20.10;99.90
42905;DHT22;28550;51.228;4.528;2024-03-08T14:25:24;19.40;99.90
42905;DHT22;28550;51.228;4.528;2024-03-08T14:27:51;19.40;99.90
42905;DHT22;28550;51.228;4.528;2024-03-08T14:30:25;19.10;99.90
42905;DHT22;28550;51.228;4.528;2024-03-08T14:33:04;18.90;99.90
42905;DHT22;28550;51.228;4.528;2024-03-08T14:35:40;19.40;99.90
42905;DHT22;28550;51.228;4.528;2024-03-08T14:38:06;20.10;99.90
42905;DHT22;28550;51.228;4.528;2024-03-08T14:40:36;19.40;99.90
42905;DHT22;28550;51.228;4.528;2024-03-08T14:43:04;19.40;99.90
42905;DHT22;28550;51.228;4.528;2024-03-08T14:45:32;19.10;99.90
42905;DHT22;28550;51.228;4.528;2024-03-08T14:47:57;18.90;99.90
42905;DHT22;28550;51.228;4.528;2024-03-08T14:50:24;18.60;99.90
42905;DHT22;28550;51.228;4.528;2024-03-08T14:52:51;18.70;99.90
42905;DHT22;28550;51.228;4.528;2024-03-08T14:55:38;18.40;99.90
42905;DHT22;28550;51.228;4.528;2024-03-08T14:58:05;18.00;99.90
42905;DHT22;28550;51.228;4.528;2024-03-08T15:00:31;17.90;99.90
42905;DHT22;28550;51.228;4.528;2024-03-08T15:03:01;18.30;99.90
42905;DHT22;28550;51.228;4.528;2024-03-08T15:05:34;18.00;99.90
42905;DHT22;28550;51.228;4.528;2024-03-08T15:08:05;18.20;99.90
42905;DHT22;28550;51.228;4.528;2024-03-08T15:10:37;18.50;99.90
42905;DHT22;28550;51.228;4.528;2024-03-08T15:13:05;18.20;99.90
42905;DHT22;28550;51.228;4.528;2024-03-08T15:15:43;18.50;99.90
42905;DHT22;28550;51.228;4.528;2024-03-08T15:18:12;18.20;99.90
42905;DHT22;28550;51.228;4.528;2024-03-08T15:20:38;18.10;99.90
42905;DHT22;28550;51.228;4.528;2024-03-08T15:23:07;18.20;99.90
42905;DHT22;28550;51.228;4.528;2024-03-08T15:25:35;18.20;99.90
42905;DHT22;28550;51.228;4.528;2024-03-08T15:28:02;17.70;99.90
42905;DHT22;28550;51.228;4.528;2024-03-08T15:30:30;18.00;99.90
42905;DHT22;28550;51.228;4.528;2024-03-08T15:32:58;18.60;99.90
42905;DHT22;28550;51.228;4.528;2024-03-08T15:35:25;18.30;99.90
42905;DHT22;28550;51.228;4.528;2024-03-08T15:37:52;18.30;99.90
42905;DHT22;28550;51.228;4.528;2024-03-08T15:40:23;18.10;99.90
42905;DHT22;28550;51.228;4.528;2024-03-08T15:42:58;17.90;99.90
42905;DHT22;28550;51.228;4.528;2024-03-08T15:45:25;17.60;99.90
42905;DHT22;28550;51.228;4.528;2024-03-08T15:47:52;17.00;99.90
42905;DHT22;28550;51.228;4.528;2024-03-08T15:50:18;16.70;99.90
42905;DHT22;28550;51.228;4.528;2024-03-08T15:52:48;16.70;99.90
42905;DHT22;28550;51.228;4.528;2024-03-08T15:55:17;16.50;99.90
42905;DHT22;28550;51.228;4.528;2024-03-08T15:57:48;16.70;99.90
42905;DHT22;28550;51.228;4.528;2024-03-08T16:00:18;16.70;99.90
42905;DHT22;28550;51.228;4.528;2024-03-08T16:03:00;16.70;99.90
42905;DHT22;28550;51.228;4.528;2024-03-08T16:05:28;16.50;99.90
42905;DHT22;28550;51.228;4.528;2024-03-08T16:07:55;15.90;99.90
42905;DHT22;28550;51.228;4.528;2024-03-08T16:10:22;15.10;99.90
42905;DHT22;28550;51.228;4.528;2024-03-08T16:12:49;14.30;99.90
42905;DHT22;28550;51.228;4.528;2024-03-08T16:15:15;14.10;99.90
42905;DHT22;28550;51.228;4.528;2024-03-08T16:17:41;13.70;99.90
42905;DHT22;28550;51.228;4.528;2024-03-08T16:20:09;13.20;99.90
42905;DHT22;28550;51.228;4.528;2024-03-08T16:22:44;12.90;99.90
42905;DHT22;28550;51.228;4.528;2024-03-08T16:25:22;12.80;1.00
42905;DHT22;28550;51.228;4.528;2024-03-08T16:27:49;12.50;1.00
42905;DHT22;28550;51.228;4.528;2024-03-08T16:30:20;12.30;1.00
42905;DHT22;28550;51.228;4.528;2024-03-08T16:32:47;12.20;1.00
42905;DHT22;28550;51.228;4.528;2024-03-08T16:35:27;12.20;7.00
42905;DHT22;28550;51.228;4.528;2024-03-08T16:37:56;12.10;1.00
42905;DHT22;28550;51.228;4.528;2024-03-08T16:40:24;12.00;40.20
42905;DHT22;28550;51.228;4.528;2024-03-08T16:42:50;11.80;85.60
42905;DHT22;28550;51.228;4.528;2024-03-08T16:45:23;11.70;99.90
42905;DHT22;28550;51.228;4.528;2024-03-08T16:47:49;11.60;99.90
42905;DHT22;28550;51.228;4.528;2024-03-08T16:50:21;11.50;99.90
42905;DHT22;28550;51.228;4.528;2024-03-08T16:52:49;11.50;1.00
42905;DHT22;28550;51.228;4.528;2024-03-08T16:55:17;11.40;1.00
42905;DHT22;28550;51.228;4.528;2024-03-08T16:57:48;11.30;1.00
42905;DHT22;28550;51.228;4.528;2024-03-08T17:00:18;11.30;1.00
42905;DHT22;28550;51.228;4.528;2024-03-08T17:02:48;11.20;1.00
42905;DHT22;28550;51.228;4.528;2024-03-08T17:05:15;11.10;99.90
42905;DHT22;28550;51.228;4.528;2024-03-08T17:07:45;11.00;99.90
42905;DHT22;28550;51.228;4.528;2024-03-08T17:10:21;11.00;1.00
42905;DHT22;28550;51.228;4.528;2024-03-08T17:12:50;10.80;55.60
42905;DHT22;28550;51.228;4.528;2024-03-08T17:15:22;10.80;10.70
42905;DHT22;28550;51.228;4.528;2024-03-08T17:17:55;10.70;1.00
42905;DHT22;28550;51.228;4.528;2024-03-08T17:20:29;10.60;99.90
42905;DHT22;28550;51.228;4.528;2024-03-08T17:22:57;10.60;99.90
42905;DHT22;28550;51.228;4.528;2024-03-08T17:25:25;10.50;1.00
42905;DHT22;28550;51.228;4.528;2024-03-08T17:27:54;10.50;1.00
42905;DHT22;28550;51.228;4.528;2024-03-08T17:30:27;10.40;1.00
42905;DHT22;28550;51.228;4.528;2024-03-08T17:32:56;10.40;1.00
42905;DHT22;28550;51.228;4.528;2024-03-08T17:35:30;10.40;41.80
42905;DHT22;28550;51.228;4.528;2024-03-08T17:38:10;10.30;18.60
42905;DHT22;28550;51.228;4.528;2024-03-08T17:40:37;10.20;98.20
42905;DHT22;28550;51.228;4.528;2024-03-08T17:43:04;10.10;1.00
42905;DHT22;28550;51.228;4.528;2024-03-08T17:45:37;10.10;1.00
42905;DHT22;28550;51.228;4.528;2024-03-08T17:48:06;10.00;1.00
42905;DHT22;28550;51.228;4.528;2024-03-08T17:50:42;9.90;1.00
42905;DHT22;28550;51.228;4.528;2024-03-08T17:53:09;9.90;1.00
42905;DHT22;28550;51.228;4.528;2024-03-08T17:55:39;9.80;92.40
42905;DHT22;28550;51.228;4.528;2024-03-08T17:58:10;9.80;99.90
42905;DHT22;28550;51.228;4.528;2024-03-08T18:00:36;9.70;1.00
42905;DHT22;28550;51.228;4.528;2024-03-08T18:03:06;9.70;99.90
42905;DHT22;28550;51.228;4.528;2024-03-08T18:05:42;9.70;1.00
42905;DHT22;28550;51.228;4.528;2024-03-08T18:08:13;9.70;1.00
42905;DHT22;28550;51.228;4.528;2024-03-08T18:10:40;9.60;1.00
42905;DHT22;28550;51.228;4.528;2024-03-08T18:13:14;9.60;99.90
42905;DHT22;28550;51.228;4.528;2024-03-08T18:15:53;9.50;99.90
42905;DHT22;28550;51.228;4.528;2024-03-08T18:18:24;9.50;1.00
42905;DHT22;28550;51.228;4.528;2024-03-08T18:20:50;9.50;1.00
42905;DHT22;28550;51.228;4.528;2024-03-08T18:23:18;9.50;99.90
42905;DHT22;28550;51.228;4.528;2024-03-08T18:25:47;9.40;99.90
42905;DHT22;28550;51.228;4.528;2024-03-08T18:28:14;9.40;99.90
42905;DHT22;28550;51.228;4.528;2024-03-08T18:30:42;9.40;1.00
42905;DHT22;28550;51.228;4.528;2024-03-08T18:33:09;9.30;1.00
42905;DHT22;28550;51.228;4.528;2024-03-08T18:35:44;9.30;1.00
42905;DHT22;28550;51.228;4.528;2024-03-08T18:38:12;9.30;99.90
42905;DHT22;28550;51.228;4.528;2024-03-08T18:40:40;9.20;99.90
42905;DHT22;28550;51.228;4.528;2024-03-08T18:43:09;9.20;99.90
42905;DHT22;28550;51.228;4.528;2024-03-08T18:45:36;9.10;99.90
42905;DHT22;28550;51.228;4.528;2024-03-08T18:48:04;9.20;1.00
42905;DHT22;28550;51.228;4.528;2024-03-08T18:50:32;9.20;99.90
42905;DHT22;28550;51.228;4.528;2024-03-08T18:52:58;9.10;95.00
42905;DHT22;28550;51.228;4.528;2024-03-08T18:55:25;9.00;1.00
42905;DHT22;28550;51.228;4.528;2024-03-08T18:57:55;9.00;1.00
42905;DHT22;28550;51.228;4.528;2024-03-08T19:00:26;9.00;1.00
42905;DHT22;28550;51.228;4.528;2024-03-08T19:02:59;9.00;99.90
42905;DHT22;28550;51.228;4.528;2024-03-08T19:05:28;9.00;99.90
42905;DHT22;28550;51.228;4.528;2024-03-08T19:07:55;9.00;1.00
42905;DHT22;28550;51.228;4.528;2024-03-08T19:10:36;8.90;2.70
42905;DHT22;28550;51.228;4.528;2024-03-08T19:13:15;8.90;1.00
42905;DHT22;28550;51.228;4.528;2024-03-08T19:15:42;8.90;99.90
42905;DHT22;28550;51.228;4.528;2024-03-08T19:29:35;8.80;99.90
42905;DHT22;28550;51.228;4.528;2024-03-08T19:32:01;8.80;99.90
42905;DHT22;28550;51.228;4.528;2024-03-08T19:34:29;8.70;99.90
42905;DHT22;28550;51.228;4.528;2024-03-08T19:36:54;8.70;1.00
42905;DHT22;28550;51.228;4.528;2024-03-08T19:39:21;8.70;1.00
42905;DHT22;28550;51.228;4.528;2024-03-08T19:41:50;8.70;1.00
42905;DHT22;28550;51.228;4.528;2024-03-08T19:44:16;8.70;18.20
42905;DHT22;28550;51.228;4.528;2024-03-08T19:46:42;8.60;1.00
42905;DHT22;28550;51.228;4.528;2024-03-08T19:49:08;8.60;99.90
42905;DHT22;28550;51.228;4.528;2024-03-08T19:51:35;8.60;57.40
42905;DHT22;28550;51.228;4.528;2024-03-08T19:54:02;8.50;99.90
42905;DHT22;28550;51.228;4.528;2024-03-08T19:56:29;8.50;99.90
42905;DHT22;28550;51.228;4.528;2024-03-08T19:59:03;8.50;99.90
42905;DHT22;28550;51.228;4.528;2024-03-08T20:01:32;8.50;99.90
42905;DHT22;28550;51.228;4.528;2024-03-08T20:03:58;8.50;99.90
42905;DHT22;28550;51.228;4.528;2024-03-08T20:06:24;8.50;99.90
42905;DHT22;28550;51.228;4.528;2024-03-08T20:08:49;8.40;1.00
42905;DHT22;28550;51.228;4.528;2024-03-08T20:11:15;8.40;1.00
42905;DHT22;28550;51.228;4.528;2024-03-08T20:13:41;8.40;1.00
42905;DHT22;28550;51.228;4.528;2024-03-08T20:16:08;8.40;1.00
42905;DHT22;28550;51.228;4.528;2024-03-08T20:18:39;8.50;1.00
42905;DHT22;28550;51.228;4.528;2024-03-08T20:21:05;8.50;1.00
42905;DHT22;28550;51.228;4.528;2024-03-08T20:23:31;8.60;99.90
42905;DHT22;28550;51.228;4.528;2024-03-08T20:25:57;8.70;99.90
42905;DHT22;28550;51.228;4.528;2024-03-08T20:28:23;8.70;99.90
42905;DHT22;28550;51.228;4.528;2024-03-08T20:30:51;8.70;18.50
42905;DHT22;28550;51.228;4.528;2024-03-08T20:33:18;8.80;1.00
42905;DHT22;28550;51.228;4.528;2024-03-08T20:35:45;8.80;99.90
42905;DHT22;28550;51.228;4.528;2024-03-08T20:38:14;8.80;99.90
42905;DHT22;28550;51.228;4.528;2024-03-08T20:40:45;8.70;99.90
42905;DHT22;28550;51.228;4.528;2024-03-08T20:43:13;8.70;99.90
42905;DHT22;28550;51.228;4.528;2024-03-08T20:45:44;8.70;1.00
42905;DHT22;28550;51.228;4.528;2024-03-08T20:48:17;8.70;99.90
42905;DHT22;28550;51.228;4.528;2024-03-08T20:50:46;8.70;99.90
42905;DHT22;28550;51.228;4.528;2024-03-08T20:53:16;8.70;99.90
42905;DHT22;28550;51.228;4.528;2024-03-08T20:55:43;8.70;99.90
42905;DHT22;28550;51.228;4.528;2024-03-08T20:58:10;8.70;99.90
42905;DHT22;28550;51.228;4.528;2024-03-08T21:00:36;8.70;99.90
42905;DHT22;28550;51.228;4.528;2024-03-08T21:03:14;8.60;1.00
42905;DHT22;28550;51.228;4.528;2024-03-08T21:05:42;8.70;99.90
42905;DHT22;28550;51.228;4.528;2024-03-08T21:08:27;8.70;99.90
42905;DHT22;28550;51.228;4.528;2024-03-08T21:10:54;8.80;1.00
42905;DHT22;28550;51.228;4.528;2024-03-08T21:13:32;8.70;99.90
42905;DHT22;28550;51.228;4.528;2024-03-08T21:16:01;8.70;1.00
42905;DHT22;28550;51.228;4.528;2024-03-08T21:18:29;8.70;1.00
42905;DHT22;28550;51.228;4.528;2024-03-08T21:20:57;8.80;99.90
42905;DHT22;28550;51.228;4.528;2024-03-08T21:23:24;8.80;1.00
42905;DHT22;28550;51.228;4.528;2024-03-08T21:25:52;8.70;1.00
42905;DHT22;28550;51.228;4.528;2024-03-08T21:28:20;8.70;1.00
42905;DHT22;28550;51.228;4.528;2024-03-08T21:30:53;8.70;1.00
42905;DHT22;28550;51.228;4.528;2024-03-08T21:33:38;8.70;1.00
42905;DHT22;28550;51.228;4.528;2024-03-08T21:36:12;8.70;1.00
42905;DHT22;28550;51.228;4.528;2024-03-08T21:38:40;8.70;1.00
42905;DHT22;28550;51.228;4.528;2024-03-08T21:41:29;8.70;39.50
42905;DHT22;28550;51.228;4.528;2024-03-08T21:52:23;8.70;1.00
42905;DHT22;28550;51.228;4.528;2024-03-08T21:54:52;8.70;1.00
42905;DHT22;28550;51.228;4.528;2024-03-08T21:57:18;8.70;1.00
42905;DHT22;28550;51.228;4.528;2024-03-08T21:59:47;8.70;96.60
42905;DHT22;28550;51.228;4.528;2024-03-08T22:02:13;8.60;1.00
42905;DHT22;28550;51.228;4.528;2024-03-08T22:04:39;8.60;99.90
42905;DHT22;28550;51.228;4.528;2024-03-08T22:07:05;8.50;99.90
42905;DHT22;28550;51.228;4.528;2024-03-08T22:09:34;8.50;99.90
42905;DHT22;28550;51.228;4.528;2024-03-08T22:12:00;8.40;99.90
42905;DHT22;28550;51.228;4.528;2024-03-08T22:14:29;8.40;1.00
42905;DHT22;28550;51.228;4.528;2024-03-08T22:16:54;8.40;99.90
42905;DHT22;28550;51.228;4.528;2024-03-08T22:19:21;8.40;99.90
42905;DHT22;28550;51.228;4.528;2024-03-08T22:21:49;8.50;1.00
42905;DHT22;28550;51.228;4.528;2024-03-08T22:24:15;8.50;99.90
42905;DHT22;28550;51.228;4.528;2024-03-08T22:26:41;8.50;99.90
42905;DHT22;28550;51.228;4.528;2024-03-08T22:29:09;8.50;99.90
42905;DHT22;28550;51.228;4.528;2024-03-08T22:31:35;8.50;1.00
42905;DHT22;28550;51.228;4.528;2024-03-08T22:34:02;8.50;99.90
42905;DHT22;28550;51.228;4.528;2024-03-08T22:36:28;8.60;99.90
42905;DHT22;28550;51.228;4.528;2024-03-08T22:38:55;8.50;99.90
42905;DHT22;28550;51.228;4.528;2024-03-08T22:41:21;8.40;1.00
42905;DHT22;28550;51.228;4.528;2024-03-08T22:43:48;8.40;1.00
42905;DHT22;28550;51.228;4.528;2024-03-08T22:46:16;8.30;1.00
42905;DHT22;28550;51.228;4.528;2024-03-08T22:48:43;8.30;1.00
42905;DHT22;28550;51.228;4.528;2024-03-08T22:51:09;8.20;99.90
42905;DHT22;28550;51.228;4.528;2024-03-08T22:53:43;8.20;99.90
42905;DHT22;28550;51.228;4.528;2024-03-08T22:56:10;8.20;37.40
42905;DHT22;28550;51.228;4.528;2024-03-08T22:58:36;8.10;99.90
42905;DHT22;28550;51.228;4.528;2024-03-08T23:01:04;8.00;99.90
42905;DHT22;28550;51.228;4.528;2024-03-08T23:03:30;7.90;99.90
42905;DHT22;28550;51.228;4.528;2024-03-08T23:05:57;7.80;99.90
42905;DHT22;28550;51.228;4.528;2024-03-08T23:08:26;7.60;99.90
42905;DHT22;28550;51.228;4.528;2024-03-08T23:10:55;7.50;1.00
42905;DHT22;28550;51.228;4.528;2024-03-08T23:13:23;7.40;1.00
42905;DHT22;28550;51.228;4.528;2024-03-08T23:15:50;7.50;1.00
42905;DHT22;28550;51.228;4.528;2024-03-08T23:18:17;7.40;1.00
42905;DHT22;28550;51.228;4.528;2024-03-08T23:20:45;7.40;1.00
42905;DHT22;28550;51.228;4.528;2024-03-08T23:23:14;7.40;1.00
42905;DHT22;28550;51.228;4.528;2024-03-08T23:25:40;7.40;1.00
42905;DHT22;28550;51.228;4.528;2024-03-08T23:28:08;7.40;1.00
42905;DHT22;28550;51.228;4.528;2024-03-08T23:30:36;7.30;1.00
42905;DHT22;28550;51.228;4.528;2024-03-08T23:33:06;7.40;1.00
42905;DHT22;28550;51.228;4.528;2024-03-08T23:35:33;7.40;1.00
42905;DHT22;28550;51.228;4.528;2024-03-08T23:38:05;7.30;1.00
42905;DHT22;28550;51.228;4.528;2024-03-08T23:41:02;7.20;1.00
42905;DHT22;28550;51.228;4.528;2024-03-08T23:43:28;7.30;1.00
42905;DHT22;28550;51.228;4.528;2024-03-08T23:45:57;7.30;1.00
42905;DHT22;28550;51.228;4.528;2024-03-08T23:48:23;7.30;1.00
42905;DHT22;28550;51.228;4.528;2024-03-08T23:50:48;7.40;1.00
42905;DHT22;28550;51.228;4.528;2024-03-08T23:53:15;7.50;1.00
42905;DHT22;28550;51.228;4.528;2024-03-08T23:55:41;7.60;1.00
42905;DHT22;28550;51.228;4.528;2024-03-08T23:58:10;7.70;1.00
